createdAt,value
2023-04-11T00:01:50.070Z,4.35
2023-04-11T00:04:20.450Z,3.05
2023-04-11T00:06:48.449Z,3.05
2023-04-11T00:09:16.753Z,4.18
2023-04-11T00:11:43.992Z,3.08
2023-04-11T00:14:12.553Z,3.35
2023-04-11T00:16:41.401Z,3.55
2023-04-11T00:19:09.565Z,1.73
2023-04-11T00:21:40.016Z,7.28
2023-04-11T00:24:08.296Z,2.67
2023-04-11T00:26:35.468Z,5.53
2023-04-11T00:29:02.595Z,3.40
2023-04-11T00:31:29.775Z,3.95
2023-04-11T00:33:56.916Z,3.83
2023-04-11T00:36:24.110Z,1.70
2023-04-11T00:38:51.264Z,4.95
2023-04-11T00:41:19.086Z,1.95
2023-04-11T00:43:47.157Z,3.00
2023-04-11T00:46:14.973Z,3.10
2023-04-11T00:48:42.339Z,2.70
2023-04-11T00:51:09.570Z,3.22
2023-04-11T00:53:37.772Z,2.97
2023-04-11T00:56:05.259Z,3.83
2023-04-11T00:58:33.872Z,2.63
2023-04-11T01:01:02.076Z,3.42
2023-04-11T01:03:30.139Z,1.40
2023-04-11T01:05:57.581Z,2.72
2023-04-11T01:08:25.253Z,3.88
2023-04-11T01:10:52.351Z,2.65
2023-04-11T01:13:19.587Z,6.03
2023-04-11T01:15:46.688Z,2.95
2023-04-11T01:18:15.418Z,4.55
2023-04-11T01:20:42.685Z,3.90
2023-04-11T01:23:10.515Z,1.95
2023-04-11T01:25:37.666Z,3.20
2023-04-11T01:28:04.931Z,2.88
2023-04-11T01:30:32.018Z,4.13
2023-04-11T01:32:59.236Z,3.72
2023-04-11T01:35:26.466Z,2.40
2023-04-11T01:37:53.633Z,3.53
2023-04-11T01:40:22.631Z,4.70
2023-04-11T01:42:51.045Z,4.55
2023-04-11T01:45:18.744Z,2.50
2023-04-11T01:47:46.636Z,6.85
2023-04-11T01:50:14.531Z,5.47
2023-04-11T01:52:41.684Z,3.33
2023-04-11T01:55:09.081Z,1.88
2023-04-11T01:57:36.209Z,3.95
2023-04-11T02:00:06.124Z,2.28
2023-04-11T02:02:33.426Z,3.10
2023-04-11T02:05:00.597Z,2.28
2023-04-11T02:07:27.757Z,6.90
2023-04-11T02:09:54.838Z,3.28
2023-04-11T02:12:21.978Z,4.97
2023-04-11T02:14:49.880Z,2.20
2023-04-11T02:17:18.473Z,3.58
2023-04-11T02:19:46.168Z,2.67
2023-04-11T02:22:13.447Z,3.17
2023-04-11T02:24:40.716Z,5.05
2023-04-11T02:27:07.960Z,2.58
2023-04-11T02:29:35.387Z,4.15
2023-04-11T02:32:02.605Z,2.95
2023-04-11T02:34:29.906Z,3.88
2023-04-11T02:36:57.219Z,6.47
2023-04-11T02:39:24.335Z,4.18
2023-04-11T02:41:51.569Z,3.30
2023-04-11T02:44:19.558Z,3.17
2023-04-11T02:46:46.688Z,3.78
2023-04-11T02:49:13.841Z,3.17
2023-04-11T02:51:41.194Z,3.50
2023-04-11T02:54:08.449Z,2.75
2023-04-11T02:56:38.893Z,2.88
2023-04-11T02:59:07.007Z,2.75
2023-04-11T03:01:34.569Z,3.47
2023-04-11T03:04:01.792Z,2.60
2023-04-11T03:06:29.356Z,2.40
2023-04-11T03:08:57.033Z,1.70
2023-04-11T03:11:24.305Z,1.40
2023-04-11T03:13:51.524Z,4.10
2023-04-11T03:16:19.878Z,2.95
2023-04-11T03:18:47.091Z,4.00
2023-04-11T03:21:14.269Z,4.53
2023-04-11T03:23:41.439Z,2.60
2023-04-11T03:26:08.691Z,5.10
2023-04-11T03:28:35.992Z,3.80
2023-04-11T03:31:03.203Z,1.73
2023-04-11T03:33:30.345Z,2.75
2023-04-11T03:35:57.464Z,2.65
2023-04-11T03:38:25.794Z,4.05
2023-04-11T03:40:52.936Z,4.20
2023-04-11T03:43:20.144Z,4.88
2023-04-11T03:45:47.328Z,2.38
2023-04-11T03:48:14.539Z,1.90
2023-04-11T03:50:41.676Z,1.58
2023-04-11T03:53:08.804Z,1.63
2023-04-11T03:55:35.940Z,1.83
2023-04-11T03:58:03.095Z,1.50
2023-04-11T04:00:30.432Z,1.45
2023-04-11T04:02:57.801Z,3.78
2023-04-11T04:05:25.941Z,3.85
2023-04-11T04:07:54.587Z,1.38
2023-04-11T04:10:22.989Z,1.75
2023-04-11T04:12:50.196Z,1.85
2023-04-11T04:15:17.341Z,2.55
2023-04-11T04:17:44.750Z,6.18
2023-04-11T04:20:12.306Z,2.90
2023-04-11T04:22:39.460Z,3.15
2023-04-11T04:25:06.915Z,1.63
2023-04-11T04:27:34.069Z,2.90
2023-04-11T04:30:04.224Z,3.45
2023-04-11T04:32:31.886Z,3.00
2023-04-11T04:34:59.170Z,5.18
2023-04-11T04:37:27.279Z,4.10
2023-04-11T04:40:02.164Z,3.55
2023-04-11T04:42:30.239Z,3.90
2023-04-11T04:44:57.540Z,5.70
2023-04-11T04:47:26.537Z,4.93
2023-04-11T04:49:56.831Z,3.55
2023-04-11T04:52:24.592Z,6.70
2023-04-11T04:54:51.792Z,7.40
2023-04-11T04:57:18.981Z,4.68
2023-04-11T04:59:46.322Z,6.28
2023-04-11T05:02:13.559Z,5.43
2023-04-11T05:04:41.997Z,4.95
2023-04-11T05:07:09.158Z,3.85
2023-04-11T05:09:36.522Z,3.50
2023-04-11T05:12:04.700Z,6.68
2023-04-11T05:14:33.215Z,6.28
2023-04-11T05:17:00.489Z,3.78
2023-04-11T05:19:27.658Z,3.58
2023-04-11T05:21:55.162Z,6.53
2023-04-11T05:24:22.282Z,4.97
2023-04-11T05:26:49.457Z,6.03
2023-04-11T05:29:16.564Z,5.75
2023-04-11T05:31:43.726Z,4.93
2023-04-11T05:34:10.870Z,3.08
2023-04-11T05:36:38.025Z,2.42
2023-04-11T05:39:05.991Z,4.35
2023-04-11T05:41:33.173Z,5.13
2023-04-11T05:44:00.349Z,3.80
2023-04-11T05:46:29.393Z,4.10
2023-04-11T05:48:58.616Z,3.90
2023-04-11T05:51:26.351Z,3.83
2023-04-11T05:53:53.513Z,5.03
2023-04-11T05:56:20.688Z,4.50
2023-04-11T05:58:47.838Z,2.88
2023-04-11T06:01:18.467Z,2.78
2023-04-11T06:03:46.550Z,5.97
2023-04-11T06:06:13.904Z,6.18
2023-04-11T06:08:41.140Z,1.67
2023-04-11T06:11:08.294Z,4.25
2023-04-11T06:13:35.439Z,4.28
2023-04-11T06:16:02.881Z,4.57
2023-04-11T06:18:30.031Z,1.50
2023-04-11T06:20:57.160Z,3.55
2023-04-11T06:23:24.273Z,3.28
2023-04-11T06:25:51.424Z,1.90
2023-04-11T06:28:18.535Z,6.18
2023-04-11T06:30:45.934Z,2.45
2023-04-11T06:33:13.076Z,2.75
2023-04-11T06:35:40.455Z,6.13
2023-04-11T06:38:07.597Z,3.63
2023-04-11T06:40:34.809Z,2.75
2023-04-11T06:43:01.979Z,4.95
2023-04-11T06:45:29.173Z,3.10
2023-04-11T06:47:56.424Z,1.55
2023-04-11T06:50:23.669Z,4.18
2023-04-11T06:52:50.866Z,5.10
2023-04-11T06:55:18.072Z,6.35
2023-04-11T06:57:45.257Z,2.80
2023-04-11T07:00:13.502Z,4.35
2023-04-11T07:02:41.054Z,2.35
2023-04-11T07:05:12.042Z,2.63
2023-04-11T07:07:39.655Z,1.83
2023-04-11T07:10:07.247Z,4.20
2023-04-11T07:12:34.362Z,7.07
2023-04-11T07:15:02.144Z,2.58
2023-04-11T07:17:29.323Z,5.28
2023-04-11T07:19:56.481Z,5.82
2023-04-11T07:22:24.024Z,3.92
2023-04-11T07:24:55.365Z,2.13
2023-04-11T07:27:23.454Z,5.60
2023-04-11T07:29:51.081Z,3.90
2023-04-11T07:32:18.332Z,6.57
2023-04-11T07:34:45.542Z,6.18
2023-04-11T07:37:13.199Z,6.95
2023-04-11T07:39:40.720Z,5.13
2023-04-11T07:42:08.178Z,4.30
2023-04-11T07:44:35.327Z,4.68
2023-04-11T07:47:02.527Z,8.52
2023-04-11T07:49:29.957Z,3.67
2023-04-11T07:51:57.091Z,9.60
2023-04-11T07:54:25.299Z,6.70
2023-04-11T07:56:52.567Z,3.92
2023-04-11T07:59:19.696Z,5.45
2023-04-11T08:01:46.883Z,3.90
2023-04-11T08:04:14.355Z,3.55
2023-04-11T08:06:41.636Z,2.35
2023-04-11T08:09:08.720Z,4.70
2023-04-11T08:11:36.413Z,3.08
2023-04-11T08:14:03.577Z,6.30
2023-04-11T08:16:30.832Z,5.03
2023-04-11T08:18:59.112Z,7.53
2023-04-11T08:21:26.310Z,5.90
2023-04-11T08:23:53.527Z,5.57
2023-04-11T08:26:21.189Z,6.30
2023-04-11T08:28:48.392Z,5.28
2023-04-11T08:31:15.691Z,9.80
2023-04-11T08:33:43.005Z,9.90
2023-04-11T08:36:10.861Z,8.25
2023-04-11T08:38:38.699Z,5.80
2023-04-11T08:41:06.152Z,7.18
2023-04-11T08:43:36.635Z,11.15
2023-04-11T08:46:04.166Z,8.63
2023-04-11T08:48:32.370Z,7.22
2023-04-11T08:50:59.569Z,6.25
2023-04-11T08:53:27.049Z,4.18
2023-04-11T08:55:54.229Z,6.63
2023-04-11T08:58:21.429Z,7.35
2023-04-11T09:00:48.655Z,5.68
2023-04-11T09:03:17.325Z,6.85
2023-04-11T09:05:46.695Z,3.85
2023-04-11T09:08:14.938Z,4.63
2023-04-11T09:10:45.036Z,8.98
2023-04-11T09:13:22.603Z,5.97
2023-04-11T09:16:04.233Z,4.47
2023-04-11T09:18:32.154Z,6.10
2023-04-11T09:21:00.652Z,7.32
2023-04-11T09:23:27.856Z,7.68
2023-04-11T09:25:55.319Z,5.82
2023-04-11T09:28:22.443Z,4.68
2023-04-11T09:30:51.266Z,6.78
2023-04-11T09:33:31.612Z,8.10
2023-04-11T09:35:58.920Z,5.50
2023-04-11T09:38:29.800Z,4.72
2023-04-11T09:40:57.412Z,3.97
2023-04-11T09:43:25.122Z,3.60
2023-04-11T09:46:12.015Z,4.82
2023-04-11T09:48:46.423Z,5.32
2023-04-11T09:51:21.031Z,4.22
2023-04-11T09:53:55.977Z,5.88
2023-04-11T09:56:24.083Z,4.25
2023-04-11T09:58:51.637Z,2.92
2023-04-11T10:01:20.381Z,3.60
2023-04-11T10:03:50.996Z,5.95
2023-04-11T10:06:23.637Z,4.75
2023-04-11T10:08:51.196Z,5.45
2023-04-11T10:11:21.530Z,6.05
2023-04-11T10:13:50.274Z,4.85
2023-04-11T10:16:18.796Z,7.38
2023-04-11T10:18:55.216Z,5.10
2023-04-11T10:21:28.210Z,7.63
2023-04-11T10:24:08.536Z,6.15
2023-04-11T10:26:48.573Z,6.68
2023-04-11T10:29:34.599Z,7.18
2023-04-11T10:32:10.836Z,7.22
2023-04-11T10:34:42.012Z,4.78
2023-04-11T10:37:10.424Z,5.75
2023-04-11T10:39:52.723Z,2.65
2023-04-11T10:42:29.628Z,2.13
2023-04-11T10:45:14.990Z,3.10
2023-04-11T10:47:42.377Z,4.22
2023-04-11T10:50:28.435Z,7.55
2023-04-11T10:52:56.401Z,4.90
2023-04-11T10:55:24.080Z,3.00
2023-04-11T10:58:05.752Z,6.05
2023-04-11T11:00:51.444Z,3.47
2023-04-11T11:03:19.718Z,4.90
2023-04-11T11:05:47.464Z,5.68
2023-04-11T11:08:14.741Z,6.63
2023-04-11T11:10:48.619Z,2.65
2023-04-11T11:13:16.419Z,5.72
2023-04-11T11:15:50.193Z,5.45
2023-04-11T11:18:18.746Z,6.95
2023-04-11T11:20:45.972Z,6.70
2023-04-11T11:23:13.074Z,3.15
2023-04-11T11:25:40.320Z,4.57
2023-04-11T11:28:09.001Z,2.80
2023-04-11T11:30:37.241Z,7.68
2023-04-11T11:33:23.621Z,2.30
2023-04-11T11:35:58.027Z,4.03
2023-04-11T11:38:29.430Z,4.72
2023-04-11T11:40:57.087Z,2.58
2023-04-11T11:43:24.515Z,6.72
2023-04-11T11:46:11.153Z,2.17
2023-04-11T11:48:38.596Z,4.38
2023-04-11T11:51:06.125Z,4.70
2023-04-11T11:53:33.367Z,4.97
2023-04-11T11:56:00.642Z,4.70
2023-04-11T11:58:27.837Z,4.82
2023-04-11T12:00:55.203Z,3.30
2023-04-11T12:05:55.109Z,4.38
2023-04-11T12:08:22.327Z,2.38
2023-04-11T12:10:50.247Z,4.68
2023-04-11T12:13:19.866Z,4.93
2023-04-11T12:15:51.365Z,3.95
2023-04-11T12:18:20.918Z,2.53
2023-04-11T12:20:48.122Z,4.25
2023-04-11T12:23:15.448Z,2.05
2023-04-11T12:25:42.578Z,3.08
2023-04-11T12:28:10.133Z,4.20
2023-04-11T12:30:40.632Z,5.32
2023-04-11T12:33:07.880Z,4.45
2023-04-11T12:35:35.147Z,3.75
2023-04-11T12:38:02.363Z,4.35
2023-04-11T12:40:29.871Z,6.03
2023-04-11T12:42:57.682Z,5.28
2023-04-11T12:45:25.350Z,6.18
2023-04-11T12:47:52.870Z,6.10
2023-04-11T12:50:20.897Z,3.33
2023-04-11T12:52:49.266Z,2.35
2023-04-11T12:55:16.469Z,3.47
2023-04-11T12:57:43.758Z,2.97
2023-04-11T13:00:12.832Z,2.58
2023-04-11T13:02:43.940Z,2.17
2023-04-11T13:05:14.191Z,2.87
2023-04-11T13:07:42.062Z,5.65
2023-04-11T13:10:09.589Z,3.28
2023-04-11T13:12:41.797Z,6.15
2023-04-11T13:15:10.041Z,5.10
2023-04-11T13:17:37.222Z,4.63
2023-04-11T13:20:09.293Z,5.43
2023-04-11T13:22:37.398Z,4.53
2023-04-11T13:25:04.654Z,5.07
2023-04-11T13:27:32.127Z,2.83
2023-04-11T13:29:59.312Z,3.92
2023-04-11T13:32:26.547Z,4.35
2023-04-11T13:34:53.769Z,4.35
2023-04-11T13:37:21.979Z,2.78
2023-04-11T13:39:49.283Z,2.45
2023-04-11T13:42:16.590Z,2.15
2023-04-11T13:44:43.918Z,5.10
2023-04-11T13:47:11.223Z,4.50
2023-04-11T13:49:38.383Z,5.28
2023-04-11T13:52:05.589Z,6.32
2023-04-11T13:54:32.818Z,5.53
2023-04-11T13:57:00.100Z,4.60
2023-04-11T13:59:28.079Z,3.67
2023-04-11T14:01:55.270Z,5.40
2023-04-11T14:04:22.597Z,5.05
2023-04-11T14:06:49.847Z,2.53
2023-04-11T14:09:17.630Z,6.15
2023-04-11T14:11:44.765Z,6.05
2023-04-11T14:14:11.887Z,6.28
2023-04-11T14:16:39.017Z,4.97
2023-04-11T14:19:06.157Z,3.85
2023-04-11T14:21:33.290Z,2.92
2023-04-11T14:24:00.594Z,7.72
2023-04-11T14:26:27.749Z,6.55
2023-04-11T14:28:54.865Z,6.38
2023-04-11T14:31:22.070Z,3.92
2023-04-11T14:33:49.323Z,5.90
2023-04-11T14:36:16.517Z,6.63
2023-04-11T14:38:43.649Z,5.78
2023-04-11T14:41:10.889Z,3.75
2023-04-11T14:43:38.036Z,4.53
2023-04-11T14:46:05.264Z,3.65
2023-04-11T14:48:32.400Z,4.60
2023-04-11T14:51:02.882Z,6.05
2023-04-11T14:53:30.026Z,3.63
2023-04-11T14:55:57.180Z,4.30
2023-04-11T14:58:24.369Z,3.60
2023-04-11T15:00:51.704Z,6.25
2023-04-11T15:03:19.095Z,5.90
2023-04-11T15:05:46.715Z,8.68
2023-04-11T15:08:13.869Z,7.05
2023-04-11T15:10:41.442Z,1.77
2023-04-11T15:13:09.517Z,5.55
2023-04-11T15:15:37.380Z,4.05
2023-04-11T15:18:19.902Z,7.03
2023-04-11T15:20:46.991Z,3.55
2023-04-11T15:23:14.781Z,3.00
2023-04-11T15:25:42.274Z,4.45
2023-04-11T15:28:09.681Z,8.75
2023-04-11T15:30:40.268Z,5.55
2023-04-11T15:33:07.437Z,3.45
2023-04-11T15:35:34.612Z,3.63
2023-04-11T15:38:01.730Z,4.50
2023-04-11T15:40:29.075Z,4.13
2023-04-11T15:42:56.242Z,4.53
2023-04-11T15:45:23.353Z,5.20
2023-04-11T15:47:50.876Z,3.35
2023-04-11T15:50:18.071Z,3.70
2023-04-11T15:52:47.813Z,5.30
2023-04-11T15:55:15.746Z,2.60
2023-04-11T15:57:42.923Z,2.83
2023-04-11T16:00:10.665Z,2.25
2023-04-11T16:02:38.741Z,6.53
2023-04-11T16:05:07.776Z,5.47
2023-04-11T16:07:35.285Z,5.15
2023-04-11T16:10:02.674Z,3.05
2023-04-11T16:12:29.811Z,4.00
2023-04-11T16:14:56.889Z,4.88
2023-04-11T16:17:24.080Z,5.13
2023-04-11T16:19:51.890Z,4.95
2023-04-11T16:22:19.548Z,3.45
2023-04-11T16:24:46.980Z,5.95
2023-04-11T16:27:14.155Z,5.60
2023-04-11T16:29:42.460Z,7.85
2023-04-11T16:32:09.755Z,5.05
2023-04-11T16:34:37.044Z,4.25
2023-04-11T16:37:04.192Z,4.07
2023-04-11T16:39:31.576Z,2.92
2023-04-11T16:41:58.692Z,4.07
2023-04-11T16:44:25.845Z,2.15
2023-04-11T16:46:52.912Z,4.97
2023-04-11T16:49:20.187Z,6.20
2023-04-11T16:51:47.392Z,2.75
2023-04-11T16:54:15.046Z,6.20
2023-04-11T16:56:42.306Z,2.33
2023-04-11T16:59:12.154Z,4.18
2023-04-11T17:01:40.814Z,4.97
2023-04-11T17:04:08.386Z,8.15
2023-04-11T17:06:36.934Z,3.80
2023-04-11T17:09:06.190Z,5.57
2023-04-11T17:11:34.871Z,6.25
2023-04-11T17:14:04.180Z,2.33
2023-04-11T17:16:31.425Z,5.20
2023-04-11T17:18:58.619Z,5.95
2023-04-11T17:21:26.371Z,4.65
2023-04-11T17:23:53.516Z,5.40
2023-04-11T17:26:20.839Z,5.05
2023-04-11T17:28:48.014Z,5.75
2023-04-11T17:31:16.037Z,6.53
2023-04-11T17:33:43.373Z,5.57
2023-04-11T17:36:12.215Z,6.22
2023-04-11T17:38:42.180Z,4.47
2023-04-11T17:43:39.748Z,4.90
2023-04-11T17:46:08.743Z,7.03
2023-04-11T17:48:36.169Z,5.30
2023-04-11T17:51:05.375Z,11.25
2023-04-11T17:53:32.901Z,7.35
2023-04-11T17:56:04.377Z,5.30
2023-04-11T17:58:31.845Z,6.45
2023-04-11T18:00:59.563Z,4.65
2023-04-11T18:03:26.914Z,5.40
2023-04-11T18:05:54.841Z,6.85
2023-04-11T18:08:28.644Z,6.97
2023-04-11T18:11:00.480Z,6.25
2023-04-11T18:13:28.096Z,4.65
2023-04-11T18:15:55.226Z,5.85
2023-04-11T18:18:22.429Z,8.15
2023-04-11T18:20:49.594Z,5.15
2023-04-11T18:23:16.772Z,13.45
2023-04-11T18:25:43.910Z,5.30
2023-04-11T18:28:11.139Z,7.38
2023-04-11T18:30:38.295Z,4.97
2023-04-11T18:33:05.677Z,6.65
2023-04-11T18:35:32.913Z,5.90
2023-04-11T18:38:00.320Z,5.78
2023-04-11T18:40:28.192Z,7.72
2023-04-11T18:42:56.406Z,4.93
2023-04-11T18:45:24.085Z,9.57
2023-04-11T18:47:51.503Z,7.25
2023-04-11T18:50:19.090Z,6.57
2023-04-11T18:52:49.848Z,6.53
2023-04-11T18:55:20.720Z,9.32
2023-04-11T18:57:48.878Z,8.63
2023-04-11T19:00:19.066Z,8.15
2023-04-11T19:02:47.421Z,7.45
2023-04-11T19:05:15.731Z,5.88
2023-04-11T19:07:43.275Z,9.82
2023-04-11T19:10:11.600Z,7.07
2023-04-11T19:12:39.091Z,9.75
2023-04-11T19:15:08.064Z,6.93
2023-04-11T19:17:36.130Z,8.13
2023-04-11T19:20:07.258Z,8.25
2023-04-11T19:22:35.940Z,9.00
2023-04-11T19:25:03.342Z,10.30
2023-04-11T19:27:30.576Z,10.20
2023-04-11T19:29:57.659Z,14.60
2023-04-11T19:32:24.879Z,10.63
2023-04-11T19:34:52.088Z,13.68
2023-04-11T19:37:19.649Z,14.88
2023-04-11T19:39:46.881Z,12.13
2023-04-11T19:42:13.987Z,13.68
2023-04-11T19:44:41.104Z,13.85
2023-04-11T19:47:08.264Z,16.98
2023-04-11T19:49:35.624Z,37.70
2023-04-11T19:52:02.756Z,28.63
2023-04-11T19:54:30.826Z,31.30
2023-04-11T19:56:58.186Z,66.97
2023-04-11T19:59:25.589Z,84.35
2023-04-11T20:01:54.218Z,74.70
2023-04-11T20:04:22.382Z,47.95
2023-04-11T20:06:50.931Z,52.33
2023-04-11T20:09:18.181Z,42.15
2023-04-11T20:11:47.693Z,45.38
2023-04-11T20:14:14.967Z,42.97
2023-04-11T20:16:42.215Z,36.78
2023-04-11T20:19:09.425Z,42.95
2023-04-11T20:21:36.553Z,38.17
2023-04-11T20:24:03.976Z,39.60
2023-04-11T20:26:31.219Z,39.00
2023-04-11T20:28:58.456Z,39.08
2023-04-11T20:31:26.029Z,35.55
2023-04-11T20:33:53.255Z,26.83
2023-04-11T20:36:20.389Z,29.15
2023-04-11T20:38:47.575Z,30.63
2023-04-11T20:41:14.837Z,29.25
2023-04-11T20:43:42.175Z,28.25
2023-04-11T20:46:09.411Z,29.48
2023-04-11T20:48:37.618Z,35.88
2023-04-11T20:51:04.822Z,29.27
2023-04-11T20:53:31.925Z,30.98
2023-04-11T20:55:59.051Z,20.95
2023-04-11T20:58:27.307Z,12.38
2023-04-11T21:00:54.772Z,11.80
2023-04-11T21:03:22.657Z,15.63
2023-04-11T21:05:50.063Z,15.18
2023-04-11T21:08:17.291Z,20.98
2023-04-11T21:10:44.386Z,17.92
2023-04-11T21:13:12.599Z,13.45
2023-04-11T21:15:39.776Z,21.50
2023-04-11T21:18:07.619Z,11.85
2023-04-11T21:20:34.931Z,22.15
2023-04-11T21:23:02.737Z,11.07
2023-04-11T21:25:29.915Z,12.73
2023-04-11T21:27:57.035Z,13.15
2023-04-11T21:30:24.136Z,13.23
2023-04-11T21:32:51.914Z,21.58
2023-04-11T21:35:19.141Z,17.70
2023-04-11T21:37:48.962Z,18.15
2023-04-11T21:40:16.438Z,18.95
2023-04-11T21:42:43.630Z,15.93
2023-04-11T21:45:10.836Z,14.18
2023-04-11T21:47:38.200Z,14.65
2023-04-11T21:50:05.550Z,20.40
2023-04-11T21:52:32.746Z,19.63
2023-04-11T21:54:59.886Z,19.80
2023-04-11T21:57:27.093Z,11.45
2023-04-11T21:59:54.282Z,11.60
2023-04-11T22:02:21.807Z,14.75
2023-04-11T22:05:04.813Z,15.13
2023-04-11T22:07:38.265Z,18.88
2023-04-11T22:10:09.726Z,9.48
2023-04-11T22:12:37.461Z,11.23
2023-04-11T22:15:05.296Z,15.13
2023-04-11T22:17:32.633Z,11.70
2023-04-11T22:19:59.759Z,10.07
2023-04-11T22:22:30.516Z,10.18
2023-04-11T22:24:57.928Z,9.75
2023-04-11T22:27:29.394Z,12.55
2023-04-11T22:29:56.554Z,8.35
2023-04-11T22:32:24.118Z,10.35
2023-04-11T22:34:51.886Z,11.55
2023-04-11T22:37:19.133Z,9.18
2023-04-11T22:39:46.507Z,6.38
2023-04-11T22:42:13.663Z,11.18
2023-04-11T22:44:40.923Z,6.88
2023-04-11T22:47:13.291Z,10.18
2023-04-11T22:49:40.807Z,13.38
2023-04-11T22:52:08.455Z,8.45
2023-04-11T22:54:35.632Z,8.85
2023-04-11T22:57:02.819Z,14.07
2023-04-11T22:59:29.990Z,9.75
2023-04-11T23:01:57.737Z,14.77
2023-04-11T23:04:24.980Z,14.82
2023-04-11T23:06:53.515Z,14.00
2023-04-11T23:09:21.173Z,11.30
2023-04-11T23:11:48.830Z,9.52
2023-04-11T23:14:20.867Z,4.82
2023-04-11T23:16:48.072Z,8.10
2023-04-11T23:19:15.269Z,11.55
2023-04-11T23:21:42.967Z,17.00
2023-04-11T23:24:10.158Z,34.30
2023-04-11T23:26:37.301Z,37.95
2023-04-11T23:29:04.689Z,41.10
2023-04-11T23:31:32.636Z,17.48
2023-04-11T23:34:00.624Z,10.02
2023-04-11T23:36:28.142Z,10.45
2023-04-11T23:38:55.396Z,7.65
2023-04-11T23:41:22.590Z,10.40
2023-04-11T23:43:49.759Z,9.00
2023-04-11T23:46:18.172Z,9.23
2023-04-11T23:48:47.024Z,7.68
2023-04-11T23:51:14.386Z,6.32
2023-04-11T23:53:42.392Z,5.28
2023-04-11T23:56:09.777Z,11.13
2023-04-11T23:58:37.105Z,6.47
